Time;durP1;ratioP1;P1;durP2;ratioP2;P2;SDS_P1;SDS_P2;PMS_P1;PMS_P2;Temp;Humidity;BMP_temperature;BMP_pressure;BME280_temperature;BME280_humidity;BME280_pressure;Samples;Min_cycle;Max_cycle;Signal;HPM_P1;HPM_P2
2022/07/30 00:01:15;;;;;;;10.07;2.08;;;19.60;93.70;;;;;;4949885;29;20316;-55
2022/07/30 00:03:42;;;;;;;4.97;2.20;;;19.50;93.80;;;;;;4950236;28;20058;-52
2022/07/30 00:06:09;;;;;;;9.30;2.38;;;19.40;94.00;;;;;;4950124;28;20051;-54
2022/07/30 00:08:35;;;;;;;5.75;2.33;;;19.40;94.10;;;;;;4949970;28;20622;-52
2022/07/30 00:11:02;;;;;;;9.25;2.35;;;19.40;94.30;;;;;;4949799;28;20093;-49
2022/07/30 00:13:29;;;;;;;4.43;2.20;;;19.30;94.20;;;;;;4949162;29;20059;-48
2022/07/30 00:15:56;;;;;;;7.20;1.77;;;19.30;94.20;;;;;;4950149;28;20083;-50
2022/07/30 00:18:23;;;;;;;4.82;1.80;;;19.30;94.20;;;;;;4950463;29;20070;-49
2022/07/30 00:20:50;;;;;;;6.75;1.92;;;19.30;94.20;;;;;;4949846;28;20517;-54
2022/07/30 00:23:17;;;;;;;3.72;1.77;;;19.20;94.30;;;;;;4949596;28;20130;-52
2022/07/30 00:25:44;;;;;;;4.18;1.92;;;19.20;94.30;;;;;;4606458;28;10000571;-50
2022/07/30 00:28:11;;;;;;;11.48;2.05;;;19.20;94.40;;;;;;4947308;28;20130;-54
2022/07/30 00:30:39;;;;;;;5.32;1.98;;;19.10;94.50;;;;;;4948568;29;20086;-53
2022/07/30 00:33:06;;;;;;;4.45;1.73;;;19.10;94.60;;;;;;4948635;29;20047;-51
2022/07/30 00:35:34;;;;;;;3.88;1.60;;;19.10;94.70;;;;;;4949693;28;20418;-52
2022/07/30 00:38:01;;;;;;;2.65;1.67;;;19.00;95.00;;;;;;4948613;29;20047;-54
2022/07/30 00:40:27;;;;;;;5.38;2.50;;;19.00;95.00;;;;;;4949536;28;20135;-55
2022/07/30 00:42:54;;;;;;;4.63;1.85;;;19.10;95.10;;;;;;4948506;29;20130;-51
2022/07/30 00:45:21;;;;;;;3.17;1.80;;;19.10;95.10;;;;;;4949874;28;20131;-54
2022/07/30 00:47:48;;;;;;;5.60;1.98;;;19.10;95.00;;;;;;4949532;28;20700;-50
2022/07/30 00:50:15;;;;;;;7.07;1.88;;;19.10;95.20;;;;;;4949899;28;20508;-52
2022/07/30 00:52:42;;;;;;;5.22;1.50;;;19.10;95.20;;;;;;4948099;29;20201;-51
2022/07/30 00:55:09;;;;;;;4.90;1.73;;;19.00;95.20;;;;;;4949797;28;20047;-55
2022/07/30 00:57:36;;;;;;;6.85;1.85;;;19.00;95.20;;;;;;4949317;28;20364;-54
2022/07/30 01:00:06;;;;;;;5.32;1.65;;;19.00;95.20;;;;;;4949763;28;20102;-54
2022/07/30 01:02:33;;;;;;;4.05;1.92;;;19.00;95.20;;;;;;4949515;28;20074;-53
2022/07/30 01:05:00;;;;;;;7.22;1.98;;;19.00;95.10;;;;;;4949113;29;20039;-50
2022/07/30 01:07:27;;;;;;;6.18;1.92;;;19.00;95.10;;;;;;4948164;29;20059;-54
2022/07/30 01:09:53;;;;;;;6.97;2.00;;;19.00;95.00;;;;;;4949541;28;20075;-53
2022/07/30 01:12:23;;;;;;;6.35;1.90;;;19.00;94.90;;;;;;4949739;28;20126;-53
2022/07/30 01:14:50;;;;;;;5.93;1.55;;;19.00;94.90;;;;;;4948261;29;20090;-53
2022/07/30 01:17:16;;;;;;;4.50;2.03;;;19.00;94.70;;;;;;4947941;29;20062;-52
2022/07/30 01:19:52;;;;;;;5.03;1.67;;;19.00;94.60;;;;;;4949352;28;20043;-53
2022/07/30 01:22:25;;;;;;;3.53;1.48;;;18.90;94.60;;;;;;4936640;29;20110;-55
2022/07/30 01:25:24;;;;;;;5.32;2.10;;;18.80;94.90;;;;;;4953072;28;20121;-54
2022/07/30 01:28:02;;;;;;;7.68;2.15;;;18.80;95.30;;;;;;4941138;29;20134;-50
2022/07/30 01:30:31;;;;;;;6.40;1.85;;;18.80;95.10;;;;;;4952563;28;20491;-51
2022/07/30 01:33:00;;;;;;;10.35;2.28;;;18.70;94.70;;;;;;4952459;28;20055;-52
2022/07/30 01:35:28;;;;;;;6.80;1.42;;;18.70;94.50;;;;;;4935548;29;20075;-54
2022/07/30 01:37:55;;;;;;;6.05;1.92;;;18.70;94.40;;;;;;4952413;28;20054;-53
2022/07/30 01:40:22;;;;;;;4.90;1.50;;;18.70;94.10;;;;;;4951452;29;20098;-51
2022/07/30 01:42:53;;;;;;;3.97;1.40;;;18.80;93.90;;;;;;4951153;29;20141;-53
2022/07/30 01:45:22;;;;;;;4.10;1.60;;;18.80;93.90;;;;;;4916583;29;20044;-52
2022/07/30 01:47:49;;;;;;;4.80;1.60;;;18.80;93.80;;;;;;4947270;29;20040;-52
2022/07/30 01:50:16;;;;;;;6.60;1.52;;;18.70;94.00;;;;;;4935454;29;20043;-50
2022/07/30 01:52:44;;;;;;;4.82;2.42;;;18.70;93.80;;;;;;4952580;28;20057;-52
2022/07/30 01:55:17;;;;;;;2.95;1.60;;;18.60;93.90;;;;;;4948492;28;20065;-52
2022/07/30 01:57:45;;;;;;;4.60;1.40;;;18.70;93.80;;;;;;4951252;29;20061;-50
2022/07/30 02:00:12;;;;;;;7.18;1.77;;;18.80;93.50;;;;;;4951589;29;20043;-51
2022/07/30 02:02:40;;;;;;;2.67;1.25;;;18.80;93.20;;;;;;4934463;29;20052;-53
2022/07/30 02:05:07;;;;;;;2.33;1.27;;;18.80;93.10;;;;;;4950668;29;20075;-49
2022/07/30 02:07:49;;;;;;;3.30;1.67;;;18.80;93.00;;;;;;4950812;29;20142;-51
2022/07/30 02:10:40;;;;;;;7.20;1.20;;;18.70;93.20;;;;;;4951758;28;20085;-53
2022/07/30 02:13:07;;;;;;;4.00;1.45;;;18.70;93.20;;;;;;4942456;29;20079;-52
2022/07/30 02:15:37;;;;;;;5.18;1.70;;;18.70;93.00;;;;;;4950525;29;20138;-54
2022/07/30 02:18:35;;;;;;;5.55;1.38;;;18.70;93.00;;;;;;4941862;29;20391;-54
2022/07/30 02:21:06;;;;;;;3.55;1.35;;;18.70;93.50;;;;;;4965253;28;20047;-54
2022/07/30 02:23:38;;;;;;;3.75;1.58;;;18.70;93.00;;;;;;4952046;28;20051;-51
2022/07/30 02:26:05;;;;;;;4.97;1.50;;;18.80;93.00;;;;;;4949985;29;20071;-54
2022/07/30 02:28:32;;;;;;;4.30;1.50;;;18.70;93.10;;;;;;4950559;29;20070;-54
2022/07/30 02:31:00;;;;;;;4.22;1.40;;;18.70;93.20;;;;;;4949925;28;21032;-54
2022/07/30 02:33:32;;;;;;;4.80;1.90;;;18.70;93.30;;;;;;4951636;28;20051;-53
2022/07/30 02:35:59;;;;;;;6.95;1.80;;;18.60;93.30;;;;;;4949984;29;22446;-52
2022/07/30 02:38:27;;;;;;;4.57;1.75;;;18.60;93.40;;;;;;4951542;28;20047;-53
2022/07/30 02:40:54;;;;;;;6.25;2.00;;;18.60;93.50;;;;;;4949996;29;20134;-53
2022/07/30 02:43:23;;;;;;;2.75;1.30;;;18.60;93.70;;;;;;4931061;29;20058;-52
2022/07/30 02:45:50;;;;;;;2.65;1.25;;;18.60;93.70;;;;;;4958747;28;20463;-52
2022/07/30 02:48:19;;;;;;;2.70;1.40;;;18.50;93.90;;;;;;4951201;28;20499;-54
2022/07/30 02:51:00;;;;;;;2.70;1.42;;;18.50;94.00;;;;;;4936022;29;20043;-50
2022/07/30 02:53:27;;;;;;;9.77;2.40;;;18.50;94.00;;;;;;4934047;29;20129;-52
2022/07/30 02:55:54;;;;;;;3.75;1.55;;;18.50;94.10;;;;;;4949614;29;20048;-53
2022/07/30 02:58:22;;;;;;;7.50;2.03;;;18.50;94.30;;;;;;4930956;29;20142;-52
2022/07/30 03:00:50;;;;;;;2.80;1.45;;;18.40;94.70;;;;;;4951274;28;20078;-55
2022/07/30 03:03:17;;;;;;;3.53;1.50;;;18.40;94.70;;;;;;4949761;29;20392;-51
2022/07/30 03:05:44;;;;;;;5.53;1.70;;;18.40;94.80;;;;;;4951011;28;20083;-53
2022/07/30 03:08:11;;;;;;;6.60;2.40;;;18.30;95.00;;;;;;4949494;29;20045;-51
2022/07/30 03:10:38;;;;;;;4.28;1.98;;;18.20;95.20;;;;;;4934031;29;20078;-54
2022/07/30 03:13:05;;;;;;;11.13;2.15;;;18.20;95.50;;;;;;4933900;29;20297;-54
2022/07/30 03:15:33;;;;;;;10.80;2.15;;;18.10;95.60;;;;;;4949621;29;20138;-51
2022/07/30 03:18:05;;;;;;;3.50;1.60;;;18.10;95.80;;;;;;4931560;29;20049;-49
2022/07/30 03:20:31;;;;;;;6.90;1.88;;;18.10;95.90;;;;;;4933870;29;20098;-53
2022/07/30 03:22:58;;;;;;;5.88;1.73;;;18.10;96.00;;;;;;4948876;29;20562;-52
2022/07/30 03:25:26;;;;;;;3.80;1.73;;;18.10;96.10;;;;;;4949483;29;20127;-53
2022/07/30 03:27:53;;;;;;;3.25;1.67;;;18.10;96.30;;;;;;4948517;29;20082;-55
2022/07/30 03:30:22;;;;;;;8.25;2.15;;;18.00;96.50;;;;;;4949438;29;20071;-55
2022/07/30 03:32:49;;;;;;;5.00;1.88;;;18.00;96.70;;;;;;4950524;29;20051;-50
2022/07/30 03:35:16;;;;;;;9.93;3.00;;;18.00;96.70;;;;;;4933601;29;20176;-52
2022/07/30 03:37:46;;;;;;;9.07;2.38;;;17.90;96.70;;;;;;4930422;29;20052;-53
2022/07/30 03:40:13;;;;;;;5.55;1.85;;;17.90;96.90;;;;;;4933269;29;20102;-52
2022/07/30 03:42:39;;;;;;;2.53;1.70;;;17.90;97.00;;;;;;4949044;28;20570;-52
2022/07/30 03:45:07;;;;;;;4.55;2.22;;;17.80;97.10;;;;;;4948773;29;20447;-52
2022/07/30 03:47:35;;;;;;;6.15;2.03;;;17.80;97.20;;;;;;4949434;29;20130;-54
2022/07/30 03:50:03;;;;;;;5.82;1.95;;;17.80;97.20;;;;;;4949010;29;20124;-54
2022/07/30 03:52:32;;;;;;;3.78;2.10;;;17.70;97.40;;;;;;4938633;29;20074;-52
2022/07/30 03:55:03;;;;;;;7.80;2.13;;;17.70;97.60;;;;;;4950337;28;20294;-52
2022/07/30 03:57:30;;;;;;;5.75;1.80;;;17.60;97.80;;;;;;4950174;28;20078;-55
2022/07/30 03:59:57;;;;;;;5.95;2.08;;;17.60;98.00;;;;;;4948865;29;20082;-53
2022/07/30 04:02:23;;;;;;;6.15;2.17;;;17.50;98.20;;;;;;4948003;28;20546;-51
2022/07/30 04:04:50;;;;;;;5.78;1.92;;;17.50;98.20;;;;;;4949898;28;20493;-53
2022/07/30 04:07:17;;;;;;;10.20;2.72;;;17.50;98.30;;;;;;4950049;28;20047;-54
2022/07/30 04:09:44;;;;;;;7.18;2.47;;;17.50;98.20;;;;;;4946538;29;20176;-53
2022/07/30 04:12:12;;;;;;;6.32;2.42;;;17.50;98.20;;;;;;4950213;28;20054;-53
2022/07/30 04:14:43;;;;;;;5.57;2.08;;;17.50;98.20;;;;;;4949822;28;20051;-54
2022/07/30 04:17:37;;;;;;;5.28;2.50;;;17.40;98.50;;;;;;4949938;28;20130;-53
2022/07/30 04:20:09;;;;;;;6.78;1.83;;;17.40;99.80;;;;;;4942934;29;20043;-53
2022/07/30 04:22:42;;;;;;;4.82;2.40;;;17.30;99.10;;;;;;4948962;29;20043;-54
2022/07/30 04:25:09;;;;;;;6.38;2.22;;;17.20;98.80;;;;;;4948687;29;20122;-57
2022/07/30 04:27:46;;;;;;;6.88;2.70;;;17.30;98.80;;;;;;4930047;29;20279;-52
2022/07/30 04:30:29;;;;;;;4.47;2.63;;;17.40;98.70;;;;;;4961597;28;20397;-55
2022/07/30 04:32:55;;;;;;;5.95;2.40;;;17.30;98.70;;;;;;4932668;29;20106;-52
2022/07/30 04:35:29;;;;;;;5.13;2.40;;;17.30;98.70;;;;;;4947883;29;20133;-52
2022/07/30 04:38:16;;;;;;;7.47;2.97;;;17.20;99.10;;;;;;4950012;28;20063;-54
2022/07/30 04:40:42;;;;;;;5.63;3.25;;;17.30;98.90;;;;;;4949830;28;20531;-50
2022/07/30 04:43:09;;;;;;;5.70;3.58;;;17.30;98.90;;;;;;4949892;28;20071;-54
2022/07/30 04:45:37;;;;;;;7.07;3.50;;;17.30;99.00;;;;;;4949390;28;20138;-50
2022/07/30 04:48:05;;;;;;;8.45;2.78;;;17.30;99.10;;;;;;4948670;28;20138;-51
2022/07/30 04:50:32;;;;;;;12.07;3.05;;;17.30;99.20;;;;;;4949393;28;20083;-52
2022/07/30 04:52:59;;;;;;;12.95;3.40;;;17.20;99.30;;;;;;4929647;29;20127;-50
2022/07/30 04:55:26;;;;;;;7.53;4.10;;;17.10;99.40;;;;;;4945144;28;20565;-53
2022/07/30 04:57:53;;;;;;;8.90;4.45;;;17.10;99.60;;;;;;4953472;28;20143;-54
2022/07/30 05:00:20;;;;;;;9.45;3.20;;;17.10;99.70;;;;;;4933095;29;20122;-53
2022/07/30 05:02:47;;;;;;;9.27;3.60;;;17.20;99.60;;;;;;4967162;28;20051;-57
2022/07/30 05:05:14;;;;;;;11.05;3.15;;;17.30;99.60;;;;;;4952148;29;20130;-51
2022/07/30 05:07:41;;;;;;;6.82;3.35;;;17.20;99.70;;;;;;4953003;28;20102;-53
2022/07/30 05:10:09;;;;;;;12.15;4.85;;;17.30;99.70;;;;;;4951904;29;20122;-54
2022/07/30 05:12:36;;;;;;;11.50;6.47;;;17.40;99.70;;;;;;4953598;28;20086;-52
2022/07/30 05:15:04;;;;;;;8.40;5.30;;;17.40;99.90;;;;;;4953104;28;20456;-53
2022/07/30 05:17:31;;;;;;;14.80;6.15;;;17.40;99.90;;;;;;4952968;28;20478;-53
2022/07/30 05:19:58;;;;;;;13.73;5.90;;;17.40;99.90;;;;;;4936199;29;20090;-51
2022/07/30 05:22:28;;;;;;;12.40;5.50;;;17.50;99.90;;;;;;4951943;29;20157;-53
2022/07/30 05:24:56;;;;;;;8.93;5.40;;;17.50;99.90;;;;;;4953009;28;20502;-52
2022/07/30 05:27:23;;;;;;;8.88;4.50;;;17.50;99.90;;;;;;4952890;28;20098;-52
2022/07/30 05:29:50;;;;;;;10.25;5.57;;;17.60;99.90;;;;;;4953337;28;20187;-51
2022/07/30 05:32:21;;;;;;;11.18;7.28;;;17.50;99.90;;;;;;4951412;29;20146;-56
2022/07/30 05:34:51;;;;;;;20.05;5.90;;;17.50;99.90;;;;;;4952867;28;20451;-53
2022/07/30 05:37:18;;;;;;;10.60;6.15;;;17.60;99.90;;;;;;4952448;28;20049;-51
2022/07/30 05:39:44;;;;;;;11.60;6.78;;;17.60;99.90;;;;;;4942164;29;20082;-53
2022/07/30 05:42:29;;;;;;;11.70;7.18;;;17.60;99.90;;;;;;4952385;28;20066;-53
2022/07/30 05:44:55;;;;;;;17.42;8.38;;;17.60;99.90;;;;;;4942470;29;20126;-49
2022/07/30 05:47:22;;;;;;;11.55;7.45;;;17.80;99.90;;;;;;4952297;28;20153;-52
2022/07/30 05:49:49;;;;;;;12.18;7.75;;;17.90;99.90;;;;;;4952658;28;20051;-49
2022/07/30 05:52:16;;;;;;;16.42;9.20;;;18.00;99.90;;;;;;4952200;28;20483;-51
2022/07/30 05:54:43;;;;;;;16.42;9.00;;;18.10;99.90;;;;;;4952459;28;20378;-48
2022/07/30 05:57:09;;;;;;;13.80;8.93;;;18.20;99.90;;;;;;4951901;28;20082;-50
2022/07/30 05:59:36;;;;;;;18.35;9.32;;;18.30;99.90;;;;;;4952332;28;20047;-52
2022/07/30 06:02:05;;;;;;;16.00;9.32;;;18.40;99.90;;;;;;4952235;28;20388;-51
2022/07/30 06:04:34;;;;;;;22.55;10.98;;;18.50;99.90;;;;;;4952557;28;20347;-55
2022/07/30 06:07:01;;;;;;;19.17;9.98;;;18.50;99.90;;;;;;4951382;28;20054;-51
2022/07/30 06:09:29;;;;;;;17.92;9.77;;;18.60;99.90;;;;;;4951900;28;20487;-52
2022/07/30 06:12:03;;;;;;;17.08;10.00;;;18.70;99.90;;;;;;4951950;28;20538;-51
2022/07/30 06:14:31;;;;;;;16.63;10.32;;;18.70;99.90;;;;;;4951993;28;20059;-51
2022/07/30 06:16:57;;;;;;;19.08;9.32;;;18.80;99.90;;;;;;4951794;28;20581;-51
2022/07/30 06:19:25;;;;;;;13.57;9.77;;;18.90;99.90;;;;;;4951877;28;20043;-52
2022/07/30 06:21:52;;;;;;;15.85;8.77;;;18.90;99.90;;;;;;4951710;28;20133;-52
2022/07/30 06:24:32;;;;;;;17.92;8.68;;;18.90;99.90;;;;;;4951809;28;20499;-52
2022/07/30 06:26:59;;;;;;;17.30;7.28;;;19.00;99.90;;;;;;4951522;28;20573;-57
2022/07/30 06:29:26;;;;;;;13.35;6.90;;;19.00;99.90;;;;;;4951748;28;20066;-53
2022/07/30 06:31:53;;;;;;;14.93;7.22;;;19.00;99.90;;;;;;4951781;28;20093;-53
2022/07/30 06:34:20;;;;;;;15.38;6.20;;;19.00;99.90;;;;;;4951579;29;20134;-57
2022/07/30 06:36:47;;;;;;;9.65;5.47;;;19.10;99.90;;;;;;4951507;28;20079;-54
2022/07/30 06:39:14;;;;;;;9.38;4.75;;;19.20;99.90;;;;;;4951338;28;20079;-53
2022/07/30 06:42:02;;;;;;;9.23;4.25;;;19.30;99.90;;;;;;4942570;29;20376;-54
2022/07/30 06:44:28;;;;;;;10.52;4.25;;;19.30;99.80;;;;;;4951068;28;20093;-53
2022/07/30 06:46:55;;;;;;;8.88;4.15;;;19.40;99.40;;;;;;4951203;28;20074;-52
2022/07/30 06:49:22;;;;;;;8.45;3.55;;;19.60;99.30;;;;;;4951514;28;20138;-54
2022/07/30 06:51:49;;;;;;;6.03;3.08;;;19.60;98.30;;;;;;4951341;28;20139;-52
2022/07/30 06:54:16;;;;;;;8.55;3.33;;;19.70;97.80;;;;;;4949973;29;20119;-52
2022/07/30 06:56:43;;;;;;;8.52;3.10;;;19.80;97.40;;;;;;4951156;28;20082;-53
2022/07/30 06:59:09;;;;;;;8.88;2.28;;;19.80;96.90;;;;;;4950769;28;20047;-49
2022/07/30 07:01:36;;;;;;;5.18;2.08;;;19.90;96.60;;;;;;4950834;28;20130;-54
2022/07/30 07:04:03;;;;;;;6.05;2.53;;;19.90;96.10;;;;;;4950929;28;20051;-54
2022/07/30 07:06:30;;;;;;;6.05;1.92;;;20.00;95.90;;;;;;4951060;28;20157;-53
2022/07/30 07:08:57;;;;;;;4.65;2.25;;;20.00;95.40;;;;;;4950750;28;20494;-52
2022/07/30 07:11:24;;;;;;;12.00;3.55;;;20.10;95.10;;;;;;4950785;28;20075;-53
2022/07/30 07:13:50;;;;;;;5.80;2.17;;;20.10;93.90;;;;;;4950636;28;20097;-50
2022/07/30 07:16:23;;;;;;;9.73;2.95;;;20.10;93.80;;;;;;4950535;28;20046;-52
2022/07/30 07:18:51;;;;;;;3.50;2.30;;;20.10;94.10;;;;;;4949906;28;20106;-53
2022/07/30 07:21:18;;;;;;;8.23;3.20;;;20.20;92.60;;;;;;4949555;29;20039;-51
2022/07/30 07:23:47;;;;;;;7.18;2.40;;;20.20;92.70;;;;;;4950816;28;20087;-53
2022/07/30 07:26:14;;;;;;;7.07;2.63;;;20.30;92.70;;;;;;4950783;28;20051;-52
2022/07/30 07:28:41;;;;;;;6.25;2.00;;;20.30;92.70;;;;;;4950726;28;20087;-51
2022/07/30 07:31:08;;;;;;;8.43;2.15;;;20.30;92.20;;;;;;4950157;28;20082;-52
2022/07/30 07:33:36;;;;;;;8.02;2.13;;;20.40;91.50;;;;;;4950725;28;20054;-54
2022/07/30 07:36:03;;;;;;;6.05;1.80;;;20.50;91.30;;;;;;4950258;28;20043;-53
2022/07/30 07:38:30;;;;;;;6.95;2.20;;;20.50;90.60;;;;;;4950553;28;20055;-55
2022/07/30 07:40:56;;;;;;;5.88;1.70;;;20.50;91.00;;;;;;4950235;28;20079;-53
2022/07/30 07:43:24;;;;;;;7.07;2.53;;;20.50;91.20;;;;;;4950477;28;20055;-53
2022/07/30 07:45:50;;;;;;;6.15;2.33;;;20.60;91.10;;;;;;4950214;28;20047;-52
2022/07/30 07:48:18;;;;;;;9.77;2.53;;;20.60;91.40;;;;;;4950355;28;20134;-55
2022/07/30 07:50:44;;;;;;;4.95;2.10;;;20.80;91.60;;;;;;4950394;28;20090;-54
2022/07/30 07:53:11;;;;;;;10.25;2.67;;;20.80;91.60;;;;;;4950631;28;20106;-53
2022/07/30 07:55:39;;;;;;;6.70;2.40;;;20.90;91.50;;;;;;4950233;28;20047;-55
2022/07/30 07:58:05;;;;;;;7.88;2.10;;;21.00;91.50;;;;;;4950364;28;20134;-54
2022/07/30 08:00:33;;;;;;;4.28;1.80;;;21.20;91.30;;;;;;4950182;28;20043;-49
2022/07/30 08:03:00;;;;;;;10.68;2.00;;;21.30;90.70;;;;;;4949935;28;20401;-52
2022/07/30 08:05:27;;;;;;;7.18;1.67;;;21.40;89.70;;;;;;4950261;28;20046;-55
2022/07/30 08:08:13;;;;;;;6.07;1.92;;;21.40;89.10;;;;;;4943218;29;20507;-52
2022/07/30 08:10:40;;;;;;;5.88;1.80;;;21.40;87.70;;;;;;4950287;28;20786;-53
2022/07/30 08:13:07;;;;;;;3.88;1.70;;;21.40;87.80;;;;;;4950336;28;20082;-53
2022/07/30 08:15:54;;;;;;;13.27;2.05;;;21.40;87.90;;;;;;4950079;28;20052;-53
2022/07/30 08:18:21;;;;;;;3.83;1.42;;;21.50;87.40;;;;;;4949917;28;20479;-51
2022/07/30 08:20:49;;;;;;;4.43;1.80;;;21.50;87.70;;;;;;4949567;28;20558;-60
2022/07/30 08:23:17;;;;;;;5.43;1.73;;;21.60;87.30;;;;;;4949934;28;20118;-54
2022/07/30 08:25:44;;;;;;;4.68;1.77;;;21.60;85.10;;;;;;4949653;28;20553;-52
2022/07/30 08:28:11;;;;;;;4.15;1.15;;;21.70;86.00;;;;;;4949306;28;20094;-53
2022/07/30 08:30:58;;;;;;;2.90;1.27;;;21.80;85.50;;;;;;4952417;28;20134;-52
2022/07/30 08:33:28;;;;;;;5.65;2.10;;;21.80;83.60;;;;;;4953362;28;20059;-53
2022/07/30 08:35:55;;;;;;;8.32;2.58;;;21.80;85.50;;;;;;4953409;28;20110;-51
2022/07/30 08:38:30;;;;;;;6.05;1.60;;;21.90;84.80;;;;;;4953250;28;20411;-53
2022/07/30 08:40:57;;;;;;;12.48;3.35;;;22.00;84.10;;;;;;4953626;28;20089;-52
2022/07/30 08:43:25;;;;;;;6.97;1.90;;;22.10;83.80;;;;;;4952896;28;20475;-53
2022/07/30 08:45:52;;;;;;;7.03;2.05;;;22.10;83.80;;;;;;4952231;29;20130;-52
2022/07/30 08:48:21;;;;;;;12.40;1.80;;;22.10;83.30;;;;;;4953310;28;20082;-53
2022/07/30 08:50:47;;;;;;;9.02;1.65;;;22.20;84.40;;;;;;4953470;28;20047;-54
2022/07/30 08:53:14;;;;;;;6.72;1.88;;;22.20;84.40;;;;;;4953060;28;20562;-50
2022/07/30 08:55:41;;;;;;;8.02;2.58;;;22.20;83.70;;;;;;4936362;29;20094;-52
2022/07/30 08:58:34;;;;;;;5.88;1.50;;;22.20;83.80;;;;;;4932513;29;20049;-52
2022/07/30 09:01:02;;;;;;;5.97;2.05;;;22.30;82.60;;;;;;4950285;28;20075;-52
2022/07/30 09:03:28;;;;;;;7.13;1.58;;;22.40;84.60;;;;;;4953513;28;20106;-53
2022/07/30 09:05:55;;;;;;;7.65;2.17;;;22.40;84.50;;;;;;4952970;28;20067;-54
2022/07/30 09:08:22;;;;;;;5.20;2.00;;;22.50;85.00;;;;;;4952699;28;20047;-51
2022/07/30 09:10:49;;;;;;;6.55;1.88;;;22.60;84.50;;;;;;4952862;28;20193;-52
2022/07/30 09:13:22;;;;;;;3.33;1.45;;;22.60;84.30;;;;;;4953382;28;20049;-53
2022/07/30 09:15:49;;;;;;;4.68;1.50;;;22.60;83.00;;;;;;4953052;28;20055;-56
2022/07/30 09:18:35;;;;;;;5.80;1.98;;;22.60;83.90;;;;;;4952514;28;20130;-54
2022/07/30 09:21:20;;;;;;;5.82;1.92;;;22.60;84.40;;;;;;4952652;28;20047;-51
2022/07/30 09:24:00;;;;;;;11.30;2.00;;;22.70;84.70;;;;;;4941479;29;20396;-51
2022/07/30 09:26:28;;;;;;;8.30;1.92;;;22.80;85.90;;;;;;4951313;29;20051;-54
2022/07/30 09:29:13;;;;;;;7.13;2.10;;;22.90;85.60;;;;;;4952780;28;20058;-58
2022/07/30 09:32:01;;;;;;;6.05;1.52;;;23.00;85.70;;;;;;4950787;29;20478;-54
2022/07/30 09:34:33;;;;;;;3.40;1.45;;;23.00;86.40;;;;;;4952595;28;20043;-54
2022/07/30 09:37:10;;;;;;;4.28;1.92;;;23.20;85.10;;;;;;4952489;28;20086;-54
2022/07/30 09:39:39;;;;;;;7.25;1.83;;;23.10;84.40;;;;;;4951559;29;20122;-50
2022/07/30 09:42:17;;;;;;;4.35;1.73;;;23.20;85.10;;;;;;4949896;28;20074;-53
2022/07/30 09:44:44;;;;;;;4.90;1.63;;;23.20;84.00;;;;;;4952473;28;20054;-52
2022/07/30 09:47:32;;;;;;;5.22;1.85;;;23.20;85.20;;;;;;4951103;29;20138;-53
2022/07/30 09:50:06;;;;;;;7.90;1.85;;;23.40;84.30;;;;;;4950902;29;20146;-53
2022/07/30 09:52:33;;;;;;;4.95;2.05;;;23.40;84.20;;;;;;4951905;29;20122;-53
2022/07/30 09:55:00;;;;;;;6.65;1.98;;;23.50;84.90;;;;;;4952085;28;20130;-53
2022/07/30 09:57:29;;;;;;;3.83;1.67;;;23.40;84.00;;;;;;4952219;28;20050;-53
2022/07/30 09:59:56;;;;;;;6.80;1.95;;;23.30;81.60;;;;;;4952002;28;20047;-55
2022/07/30 10:02:31;;;;;;;3.65;1.90;;;23.10;83.70;;;;;;4952022;29;20354;-54
2022/07/30 10:05:09;;;;;;;3.47;1.67;;;23.20;84.40;;;;;;4948639;29;20346;-50
2022/07/30 10:07:51;;;;;;;4.45;1.45;;;23.30;83.40;;;;;;4951647;28;20051;-54
2022/07/30 10:10:19;;;;;;;10.30;2.10;;;23.50;82.20;;;;;;4951770;28;20077;-49
2022/07/30 10:12:47;;;;;;;8.13;1.98;;;23.50;82.30;;;;;;4951890;28;20130;-54
2022/07/30 10:15:14;;;;;;;4.63;1.13;;;23.70;82.20;;;;;;4939737;29;20054;-50
2022/07/30 10:17:41;;;;;;;3.90;1.20;;;23.80;81.80;;;;;;4934499;29;20126;-52
2022/07/30 10:20:08;;;;;;;6.20;1.38;;;23.80;80.60;;;;;;4950789;29;20047;-50
2022/07/30 10:22:34;;;;;;;2.92;1.45;;;23.80;81.50;;;;;;4944165;28;20314;-52
2022/07/30 10:25:02;;;;;;;3.17;1.48;;;24.00;80.10;;;;;;4950482;29;20055;-55
2022/07/30 10:27:30;;;;;;;7.68;2.40;;;24.10;79.40;;;;;;4951433;28;20102;-54
2022/07/30 10:29:57;;;;;;;5.22;1.48;;;24.20;79.70;;;;;;4950289;29;20043;-54
2022/07/30 10:32:29;;;;;;;5.28;1.60;;;24.30;80.10;;;;;;4946242;29;20063;-50
2022/07/30 10:34:57;;;;;;;3.60;1.92;;;24.60;79.10;;;;;;4950833;29;20047;-55
2022/07/30 10:37:24;;;;;;;3.72;1.45;;;24.70;78.40;;;;;;4934115;29;20130;-56
2022/07/30 10:39:54;;;;;;;5.72;1.40;;;24.80;77.60;;;;;;4950104;29;20522;-51
2022/07/30 10:42:45;;;;;;;5.65;1.52;;;24.80;75.10;;;;;;4949859;29;20126;-56
2022/07/30 10:45:22;;;;;;;1.92;1.13;;;24.80;73.50;;;;;;4943005;29;20055;-53
2022/07/30 10:47:49;;;;;;;3.17;1.42;;;24.80;75.00;;;;;;4949627;29;20134;-52
2022/07/30 10:50:18;;;;;;;4.15;1.00;;;24.90;75.30;;;;;;4949980;29;20432;-55
2022/07/30 10:52:59;;;;;;;3.72;1.33;;;24.90;73.80;;;;;;4950688;28;20054;-53
2022/07/30 10:55:28;;;;;;;3.67;1.13;;;24.50;72.90;;;;;;4942332;29;20051;-54
2022/07/30 10:58:09;;;;;;;3.90;1.35;;;24.60;75.30;;;;;;4950304;28;20366;-53
2022/07/30 11:00:51;;;;;;;10.00;1.58;;;24.70;74.30;;;;;;4951137;28;20512;-56
2022/07/30 11:03:25;;;;;;;2.97;1.52;;;24.70;73.20;;;;;;4950518;28;20047;-54
2022/07/30 11:06:15;;;;;;;4.43;2.08;;;24.80;72.80;;;;;;4949738;29;20047;-54
2022/07/30 11:08:50;;;;;;;4.20;1.23;;;24.90;72.40;;;;;;4950783;28;20088;-55
2022/07/30 11:11:20;;;;;;;2.67;0.90;;;25.00;72.50;;;;;;4951221;29;20051;-53
2022/07/30 11:14:06;;;;;;;3.30;1.00;;;25.00;71.80;;;;;;4949151;29;20119;-54
2022/07/30 11:16:33;;;;;;;7.93;1.45;;;25.10;72.20;;;;;;4933871;29;20047;-52
2022/07/30 11:19:03;;;;;;;3.05;1.23;;;24.90;71.10;;;;;;4950418;28;20047;-53
2022/07/30 11:22:25;;;;;;;7.43;1.33;;;24.90;73.30;;;;;;4950681;28;20074;-55
2022/07/30 11:24:52;;;;;;;5.07;1.92;;;25.00;71.50;;;;;;4944568;29;20466;-54
2022/07/30 11:27:39;;;;;;;2.53;1.20;;;25.00;73.10;;;;;;4950606;28;20143;-54
2022/07/30 11:30:16;;;;;;;2.22;1.20;;;25.20;71.40;;;;;;4943916;29;20541;-53
2022/07/30 11:33:04;;;;;;;5.30;2.03;;;25.30;71.30;;;;;;4949991;28;20077;-53
2022/07/30 11:35:31;;;;;;;6.90;1.40;;;25.20;72.60;;;;;;4949674;28;20103;-53
2022/07/30 11:38:10;;;;;;;6.07;1.48;;;24.80;70.80;;;;;;4950200;28;20118;-54
2022/07/30 11:40:40;;;;;;;7.15;1.33;;;24.50;71.50;;;;;;4950149;28;20495;-57
2022/07/30 11:43:28;;;;;;;9.77;1.60;;;24.70;73.90;;;;;;4950199;28;20425;-55
2022/07/30 11:46:16;;;;;;;4.60;1.40;;;24.60;72.60;;;;;;4950287;28;20081;-53
2022/07/30 11:48:56;;;;;;;10.27;2.40;;;24.80;73.20;;;;;;4950228;28;20054;-54
2022/07/30 11:51:23;;;;;;;5.03;1.65;;;25.00;73.10;;;;;;4950404;28;20074;-56
2022/07/30 11:54:06;;;;;;;3.10;1.17;;;25.00;73.20;;;;;;4948739;29;20047;-53
2022/07/30 11:56:33;;;;;;;8.45;2.00;;;25.10;70.90;;;;;;4949993;28;20130;-51
2022/07/30 11:59:06;;;;;;;6.85;1.50;;;25.10;71.60;;;;;;4949904;28;20532;-54
2022/07/30 12:01:34;;;;;;;2.28;1.00;;;25.20;70.60;;;;;;4950027;28;20081;-54
2022/07/30 12:04:04;;;;;;;3.60;1.48;;;25.20;70.80;;;;;;4949789;28;20055;-54
2022/07/30 12:06:31;;;;;;;5.45;1.42;;;25.20;71.00;;;;;;4949989;29;20122;-53
2022/07/30 12:08:58;;;;;;;4.97;1.67;;;25.40;71.00;;;;;;4949760;28;20374;-54
2022/07/30 12:11:34;;;;;;;5.25;1.27;;;25.50;69.40;;;;;;4948798;29;20110;-55
2022/07/30 12:14:01;;;;;;;5.80;1.77;;;25.40;68.60;;;;;;4950296;28;20082;-56
2022/07/30 12:16:29;;;;;;;5.72;1.65;;;25.30;69.30;;;;;;4948949;29;20089;-54
2022/07/30 12:19:05;;;;;;;5.45;1.33;;;25.20;69.10;;;;;;4949945;28;20047;-53
2022/07/30 12:21:35;;;;;;;6.13;1.73;;;25.20;68.40;;;;;;4942465;29;20055;-55
2022/07/30 12:24:03;;;;;;;4.45;1.65;;;25.20;69.40;;;;;;4948500;29;20043;-53
2022/07/30 12:26:31;;;;;;;4.43;1.20;;;25.10;67.90;;;;;;4949642;28;20079;-53
2022/07/30 12:29:05;;;;;;;5.95;1.30;;;25.00;68.30;;;;;;4950176;28;20087;-54
2022/07/30 12:31:32;;;;;;;5.50;1.38;;;24.90;68.50;;;;;;4930850;29;20142;-52
2022/07/30 12:33:59;;;;;;;4.90;1.50;;;25.00;68.70;;;;;;4932749;29;20114;-55
2022/07/30 12:36:29;;;;;;;6.50;1.83;;;25.00;69.40;;;;;;4949563;29;20434;-53
2022/07/30 12:38:56;;;;;;;3.72;1.30;;;25.20;69.80;;;;;;4949787;28;20047;-52
2022/07/30 12:41:43;;;;;;;6.30;1.58;;;25.30;69.30;;;;;;4949309;28;20051;-54
2022/07/30 12:44:10;;;;;;;2.45;1.20;;;25.30;66.50;;;;;;4941588;29;20507;-52
2022/07/30 12:46:39;;;;;;;10.68;2.25;;;25.30;67.30;;;;;;4949437;28;20156;-55
2022/07/30 12:49:06;;;;;;;5.40;1.10;;;25.50;68.10;;;;;;4939447;29;20126;-54
2022/07/30 12:51:52;;;;;;;4.95;2.33;;;25.60;67.70;;;;;;4949756;28;20047;-53
2022/07/30 12:54:26;;;;;;;4.43;1.27;;;25.90;66.30;;;;;;4939524;29;20047;-52
2022/07/30 12:57:01;;;;;;;9.45;1.35;;;26.00;66.40;;;;;;4949200;28;20495;-54
2022/07/30 12:59:31;;;;;;;3.35;0.82;;;26.20;65.60;;;;;;4939451;29;20059;-54
2022/07/30 13:02:02;;;;;;;9.85;1.35;;;26.10;65.80;;;;;;4949569;28;20059;-55